createdAt,value
2022-10-16T00:00:19.096Z,10.62
2022-10-16T00:00:50.504Z,9.97
2022-10-16T00:01:21.889Z,9.41
2022-10-16T00:01:53.330Z,9.85
2022-10-16T00:02:24.826Z,10.12
2022-10-16T00:02:56.281Z,10.40
2022-10-16T00:03:30.285Z,8.76
2022-10-16T00:04:01.972Z,9.00
2022-10-16T00:04:33.384Z,9.63
2022-10-16T00:05:04.799Z,9.51
2022-10-16T00:05:36.263Z,9.40
2022-10-16T00:06:07.649Z,9.60
2022-10-16T00:06:39.035Z,9.51
2022-10-16T00:07:10.424Z,9.59
2022-10-16T00:07:41.817Z,9.43
2022-10-16T00:08:13.219Z,9.18
2022-10-16T00:08:44.615Z,9.92
2022-10-16T00:09:16.017Z,9.52
2022-10-16T00:09:47.403Z,9.34
2022-10-16T00:10:18.800Z,9.32
2022-10-16T00:10:50.335Z,9.57
2022-10-16T00:11:21.725Z,9.85
2022-10-16T00:12:29.417Z,10.49
2022-10-16T00:13:00.819Z,10.73
2022-10-16T00:13:32.228Z,9.47
2022-10-16T00:14:03.619Z,10.04
2022-10-16T00:14:35.009Z,9.88
2022-10-16T00:15:06.397Z,9.52
2022-10-16T00:15:37.791Z,9.21
2022-10-16T00:16:09.313Z,9.01
2022-10-16T00:16:40.700Z,9.62
2022-10-16T00:17:12.112Z,9.67
2022-10-16T00:17:43.501Z,9.82
2022-10-16T00:18:14.891Z,9.78
2022-10-16T00:18:46.275Z,9.32
2022-10-16T00:19:17.660Z,9.23
2022-10-16T00:19:49.039Z,9.33
2022-10-16T00:20:20.447Z,10.02
2022-10-16T00:20:51.899Z,9.16
2022-10-16T00:21:23.347Z,8.78
2022-10-16T00:21:54.723Z,9.49
2022-10-16T00:22:26.380Z,9.07
2022-10-16T00:22:57.935Z,9.67
2022-10-16T00:23:29.327Z,9.65
2022-10-16T00:24:00.720Z,10.00
2022-10-16T00:24:32.108Z,9.67
2022-10-16T00:25:03.495Z,9.09
2022-10-16T00:25:34.901Z,9.82
2022-10-16T00:26:06.313Z,9.91
2022-10-16T00:26:37.837Z,9.63
2022-10-16T00:27:09.291Z,9.59
2022-10-16T00:27:40.704Z,9.53
2022-10-16T00:28:12.098Z,10.27
2022-10-16T00:28:43.524Z,9.14
2022-10-16T00:29:14.944Z,9.42
2022-10-16T00:29:46.394Z,8.92
2022-10-16T00:30:17.819Z,9.17
2022-10-16T00:30:49.212Z,10.39
2022-10-16T00:31:20.608Z,9.64
2022-10-16T00:31:52.120Z,9.77
2022-10-16T00:32:23.762Z,9.42
2022-10-16T00:32:55.337Z,8.74
2022-10-16T00:33:26.734Z,8.79
2022-10-16T00:33:58.140Z,8.90
2022-10-16T00:34:29.528Z,8.87
2022-10-16T00:35:00.920Z,10.44
2022-10-16T00:35:32.308Z,9.82
2022-10-16T00:36:03.700Z,9.52
2022-10-16T00:36:35.108Z,8.64
2022-10-16T00:37:06.572Z,9.25
2022-10-16T00:37:37.956Z,9.66
2022-10-16T00:38:09.354Z,10.37
2022-10-16T00:38:40.745Z,9.56
2022-10-16T00:39:12.139Z,10.25
2022-10-16T00:39:43.541Z,9.61
2022-10-16T00:40:14.924Z,8.36
2022-10-16T00:40:46.327Z,9.92
2022-10-16T00:41:17.720Z,9.80
2022-10-16T00:41:49.111Z,9.07
2022-10-16T00:42:20.623Z,9.77
2022-10-16T00:42:52.004Z,8.49
2022-10-16T00:43:23.402Z,9.21
2022-10-16T00:43:54.813Z,9.24
2022-10-16T00:44:26.217Z,9.23
2022-10-16T00:44:57.615Z,10.11
2022-10-16T00:45:29.008Z,8.81
2022-10-16T00:46:00.415Z,9.79
2022-10-16T00:46:31.829Z,9.43
2022-10-16T00:47:03.300Z,9.68
2022-10-16T00:47:34.787Z,8.81
2022-10-16T00:48:42.451Z,9.69
2022-10-16T00:49:13.856Z,9.93
2022-10-16T00:49:45.253Z,9.24
2022-10-16T00:50:16.647Z,8.47
2022-10-16T00:50:48.034Z,9.41
2022-10-16T00:51:19.423Z,9.38
2022-10-16T00:51:50.828Z,9.80
2022-10-16T00:52:22.225Z,9.79
2022-10-16T00:52:53.768Z,9.34
2022-10-16T00:53:25.184Z,9.27
2022-10-16T00:53:56.572Z,9.29
2022-10-16T00:54:27.986Z,9.02
2022-10-16T00:54:59.367Z,8.45
2022-10-16T00:55:30.756Z,8.21
2022-10-16T00:56:02.165Z,8.72
2022-10-16T00:56:33.552Z,8.41
2022-10-16T00:57:05.027Z,8.62
2022-10-16T00:57:36.477Z,7.97
2022-10-16T00:58:08.023Z,8.59
2022-10-16T00:58:39.413Z,9.20
2022-10-16T00:59:10.808Z,8.95
2022-10-16T00:59:42.200Z,9.94
2022-10-16T01:00:13.604Z,9.19
2022-10-16T01:00:45.004Z,8.97
2022-10-16T01:01:16.500Z,8.68
2022-10-16T01:01:47.953Z,9.25
2022-10-16T01:02:19.341Z,9.15
2022-10-16T01:02:50.725Z,9.22
2022-10-16T01:03:22.149Z,8.99
2022-10-16T01:03:53.540Z,9.45
2022-10-16T01:04:24.937Z,9.13
2022-10-16T01:04:56.325Z,8.59
2022-10-16T01:05:27.727Z,8.59
2022-10-16T01:05:59.135Z,8.64
2022-10-16T01:06:30.517Z,9.26
2022-10-16T01:07:01.913Z,9.06
2022-10-16T01:07:33.316Z,8.87
2022-10-16T01:08:04.715Z,8.66
2022-10-16T01:08:36.260Z,8.18
2022-10-16T01:09:07.643Z,9.70
2022-10-16T01:09:39.047Z,9.34
2022-10-16T01:10:10.432Z,9.45
2022-10-16T01:10:41.820Z,8.92
2022-10-16T01:11:13.217Z,9.26
2022-10-16T01:11:44.625Z,9.45
2022-10-16T01:12:16.017Z,9.32
2022-10-16T01:12:48.053Z,9.76
2022-10-16T01:13:19.491Z,9.53
2022-10-16T01:13:50.940Z,8.85
2022-10-16T01:14:22.329Z,9.31
2022-10-16T01:14:53.719Z,9.59
2022-10-16T01:15:25.125Z,7.89
2022-10-16T01:15:56.514Z,9.12
2022-10-16T01:16:27.903Z,9.51
2022-10-16T01:16:59.298Z,8.61
2022-10-16T01:17:30.683Z,8.43
2022-10-16T01:18:02.075Z,8.05
2022-10-16T01:18:33.479Z,9.32
2022-10-16T01:19:05.000Z,8.94
2022-10-16T01:19:36.379Z,8.15
2022-10-16T01:20:07.772Z,9.44
2022-10-16T01:20:39.212Z,8.22
2022-10-16T01:21:10.592Z,8.30
2022-10-16T01:21:41.989Z,9.53
2022-10-16T01:22:13.373Z,8.85
2022-10-16T01:22:44.781Z,9.06
2022-10-16T01:23:16.191Z,9.29
2022-10-16T01:23:47.581Z,8.56
2022-10-16T01:24:19.043Z,9.49
2022-10-16T01:24:50.427Z,8.44
2022-10-16T01:25:21.840Z,8.28
2022-10-16T01:25:53.229Z,8.78
2022-10-16T01:26:24.632Z,9.05
2022-10-16T01:26:56.025Z,8.92
2022-10-16T01:27:27.901Z,9.05
2022-10-16T01:27:59.549Z,8.92
2022-10-16T01:28:31.011Z,8.31
2022-10-16T01:29:02.543Z,8.71
2022-10-16T01:29:34.128Z,9.10
2022-10-16T01:30:05.514Z,9.48
2022-10-16T01:30:36.913Z,9.09
2022-10-16T01:31:08.298Z,8.96
2022-10-16T01:31:39.700Z,8.46
2022-10-16T01:32:11.083Z,8.01
2022-10-16T01:32:42.528Z,7.91
2022-10-16T01:33:13.918Z,8.55
2022-10-16T01:33:45.361Z,9.18
2022-10-16T01:34:16.836Z,8.74
2022-10-16T01:34:48.293Z,8.04
2022-10-16T01:35:19.677Z,9.20
2022-10-16T01:35:51.069Z,9.69
2022-10-16T01:36:22.457Z,8.52
2022-10-16T01:36:53.916Z,8.05
2022-10-16T01:37:25.553Z,8.46
2022-10-16T01:37:57.123Z,8.84
2022-10-16T01:38:28.512Z,9.11
2022-10-16T01:38:59.896Z,8.65
2022-10-16T01:39:31.284Z,8.47
2022-10-16T01:40:02.756Z,8.59
2022-10-16T01:40:34.165Z,8.62
2022-10-16T01:41:05.549Z,8.57
2022-10-16T01:41:36.953Z,9.12
2022-10-16T01:42:08.353Z,8.84
2022-10-16T01:42:39.745Z,8.63
2022-10-16T01:43:11.130Z,8.74
2022-10-16T01:43:42.529Z,8.23
2022-10-16T01:44:13.928Z,9.19
2022-10-16T01:44:45.384Z,8.99
2022-10-16T01:45:16.774Z,9.73
2022-10-16T01:45:48.164Z,8.37
2022-10-16T01:46:19.567Z,7.97
2022-10-16T01:46:50.954Z,8.04
2022-10-16T01:47:22.336Z,8.65
2022-10-16T01:47:53.716Z,8.05
2022-10-16T01:48:25.140Z,8.60
2022-10-16T01:48:56.546Z,8.81
2022-10-16T01:49:27.942Z,8.77
2022-10-16T01:49:59.444Z,9.37
2022-10-16T01:50:30.847Z,8.24
2022-10-16T01:51:02.238Z,8.66
2022-10-16T01:51:33.635Z,8.46
2022-10-16T01:52:05.048Z,8.49
2022-10-16T01:52:36.440Z,7.81
2022-10-16T01:53:07.847Z,8.73
2022-10-16T01:53:39.228Z,8.93
2022-10-16T01:54:10.681Z,8.61
2022-10-16T01:54:42.072Z,8.28
2022-10-16T01:55:13.499Z,8.18
2022-10-16T01:55:44.885Z,8.32
2022-10-16T01:56:16.274Z,8.05
2022-10-16T01:56:47.661Z,7.77
2022-10-16T01:57:19.064Z,8.65
2022-10-16T01:57:50.460Z,8.44
2022-10-16T01:58:21.867Z,9.05
2022-10-16T01:58:53.256Z,7.81
2022-10-16T01:59:24.641Z,8.54
2022-10-16T01:59:56.125Z,8.41
2022-10-16T02:00:27.507Z,7.77
2022-10-16T02:00:59.095Z,8.61
2022-10-16T02:01:30.591Z,8.45
2022-10-16T02:02:01.981Z,7.47
2022-10-16T02:02:33.389Z,7.85
2022-10-16T02:03:04.777Z,8.13
2022-10-16T02:03:36.160Z,9.17
2022-10-16T02:04:07.546Z,8.55
2022-10-16T02:04:38.928Z,8.50
2022-10-16T02:05:10.404Z,8.56
2022-10-16T02:05:41.791Z,8.61
2022-10-16T02:06:13.203Z,7.94
2022-10-16T02:06:44.597Z,7.91
2022-10-16T02:07:15.988Z,8.70
2022-10-16T02:07:47.392Z,7.84
2022-10-16T02:08:18.774Z,7.96
2022-10-16T02:08:50.181Z,7.83
2022-10-16T02:09:21.567Z,8.02
2022-10-16T02:09:52.951Z,7.70
2022-10-16T02:10:24.499Z,8.47
2022-10-16T02:10:55.906Z,8.28
2022-10-16T02:11:27.287Z,8.73
2022-10-16T02:11:58.674Z,8.04
2022-10-16T02:12:30.084Z,8.58
2022-10-16T02:13:01.466Z,8.60
2022-10-16T02:13:32.867Z,7.61
2022-10-16T02:14:04.267Z,8.29
2022-10-16T02:14:35.668Z,7.07
2022-10-16T02:15:07.227Z,7.42
2022-10-16T02:15:38.633Z,7.64
2022-10-16T02:16:10.021Z,8.28
2022-10-16T02:16:41.405Z,8.37
2022-10-16T02:17:12.816Z,8.00
2022-10-16T02:17:44.200Z,8.88
2022-10-16T02:18:15.582Z,8.01
2022-10-16T02:18:46.977Z,8.96
2022-10-16T02:19:18.365Z,8.45
2022-10-16T02:19:49.753Z,8.61
2022-10-16T02:20:21.233Z,8.05
2022-10-16T02:20:52.616Z,8.43
2022-10-16T02:21:24.005Z,8.25
2022-10-16T02:21:55.397Z,8.03
2022-10-16T02:22:27.000Z,8.25
2022-10-16T02:22:58.548Z,8.42
2022-10-16T02:23:29.940Z,8.63
2022-10-16T02:24:01.340Z,8.29
2022-10-16T02:24:32.733Z,7.75
2022-10-16T02:25:04.124Z,7.52
2022-10-16T02:25:35.553Z,8.26
2022-10-16T02:26:06.935Z,8.06
2022-10-16T02:26:38.349Z,8.19
2022-10-16T02:27:09.736Z,8.07
2022-10-16T02:27:41.131Z,8.10
2022-10-16T02:28:12.540Z,7.89
2022-10-16T02:28:44.060Z,8.42
2022-10-16T02:29:15.565Z,8.39
2022-10-16T02:29:46.959Z,7.91
2022-10-16T02:30:18.365Z,7.91
2022-10-16T02:30:49.888Z,7.54
2022-10-16T02:31:21.284Z,7.59
2022-10-16T02:31:52.676Z,8.23
2022-10-16T02:32:24.214Z,8.15
2022-10-16T02:32:55.892Z,7.78
2022-10-16T02:33:27.281Z,8.70
2022-10-16T02:33:58.671Z,8.66
2022-10-16T02:34:30.068Z,7.78
2022-10-16T02:35:01.451Z,9.28
2022-10-16T02:35:32.864Z,8.71
2022-10-16T02:36:04.257Z,8.18
2022-10-16T02:36:35.651Z,8.10
2022-10-16T02:37:07.031Z,7.32
2022-10-16T02:37:38.428Z,7.92
2022-10-16T02:38:42.126Z,7.53
2022-10-16T02:39:13.535Z,7.59
2022-10-16T02:39:44.916Z,7.81
2022-10-16T02:40:18.305Z,7.97
2022-10-16T02:40:51.881Z,7.45
2022-10-16T02:41:23.286Z,8.61
2022-10-16T02:41:54.695Z,7.33
2022-10-16T02:42:26.346Z,8.25
2022-10-16T02:42:57.900Z,8.75
2022-10-16T02:43:29.351Z,7.60
2022-10-16T02:44:00.755Z,7.08
2022-10-16T02:44:32.143Z,7.13
2022-10-16T02:45:03.530Z,7.47
2022-10-16T02:45:34.915Z,8.27
2022-10-16T02:46:06.371Z,7.67
2022-10-16T02:46:37.757Z,7.61
2022-10-16T02:47:09.260Z,7.11
2022-10-16T02:47:40.705Z,7.29
2022-10-16T02:48:12.116Z,7.60
2022-10-16T02:48:43.500Z,6.91
2022-10-16T02:49:14.883Z,7.68
2022-10-16T02:49:46.273Z,8.16
2022-10-16T02:50:17.664Z,8.21
2022-10-16T02:50:49.193Z,7.49
2022-10-16T02:51:20.584Z,8.06
2022-10-16T02:51:51.988Z,8.68
2022-10-16T02:52:23.735Z,8.12
2022-10-16T02:52:55.391Z,7.13
2022-10-16T02:53:26.795Z,7.77
2022-10-16T02:53:58.204Z,7.71
2022-10-16T02:54:29.593Z,7.23
2022-10-16T02:55:00.996Z,7.93
2022-10-16T02:55:32.376Z,7.91
2022-10-16T02:56:03.846Z,7.75
2022-10-16T02:56:35.233Z,8.04
2022-10-16T02:57:06.622Z,8.46
2022-10-16T02:57:38.006Z,7.74
2022-10-16T02:58:09.387Z,8.24
2022-10-16T02:58:40.775Z,7.22
2022-10-16T02:59:12.164Z,7.96
2022-10-16T02:59:43.556Z,8.36
2022-10-16T03:00:14.958Z,8.10
2022-10-16T03:00:46.401Z,7.48
2022-10-16T03:01:18.050Z,7.83
2022-10-16T03:01:49.497Z,8.46
2022-10-16T03:02:20.906Z,8.17
2022-10-16T03:02:52.295Z,7.27
2022-10-16T03:03:23.684Z,6.85
2022-10-16T03:03:55.075Z,7.44
2022-10-16T03:04:26.460Z,8.08
2022-10-16T03:04:57.859Z,7.60
2022-10-16T03:05:29.258Z,7.76
2022-10-16T03:06:00.646Z,7.05
2022-10-16T03:06:32.072Z,7.80
2022-10-16T03:07:03.480Z,7.32
2022-10-16T03:07:34.860Z,7.03
2022-10-16T03:08:06.244Z,7.34
2022-10-16T03:08:37.632Z,7.42
2022-10-16T03:09:09.035Z,7.94
2022-10-16T03:09:40.419Z,8.14
2022-10-16T03:10:11.808Z,7.77
2022-10-16T03:10:43.191Z,7.98
2022-10-16T03:11:14.595Z,8.12
2022-10-16T03:11:46.130Z,7.65
2022-10-16T03:12:17.523Z,9.16
2022-10-16T03:12:48.929Z,8.29
2022-10-16T03:13:20.316Z,7.99
2022-10-16T03:13:51.716Z,7.66
2022-10-16T03:14:23.171Z,6.94
2022-10-16T03:14:54.604Z,8.26
2022-10-16T03:15:25.987Z,7.61
2022-10-16T03:15:57.377Z,7.63
2022-10-16T03:16:28.763Z,7.41
2022-10-16T03:17:00.310Z,8.18
2022-10-16T03:17:31.711Z,7.87
2022-10-16T03:18:03.139Z,8.12
2022-10-16T03:18:34.533Z,7.68
2022-10-16T03:19:05.932Z,7.78
2022-10-16T03:19:37.339Z,6.95
2022-10-16T03:20:08.726Z,7.88
2022-10-16T03:20:40.124Z,8.33
2022-10-16T03:21:11.518Z,7.57
2022-10-16T03:21:42.913Z,6.99
2022-10-16T03:22:14.323Z,7.57
2022-10-16T03:22:45.723Z,8.34
2022-10-16T03:23:17.117Z,8.75
2022-10-16T03:23:48.521Z,8.21
2022-10-16T03:24:19.925Z,8.25
2022-10-16T03:24:51.315Z,7.62
2022-10-16T03:25:22.729Z,7.60
2022-10-16T03:25:54.134Z,8.27
2022-10-16T03:26:25.524Z,7.06
2022-10-16T03:26:56.911Z,7.66
2022-10-16T03:27:28.824Z,6.78
2022-10-16T03:28:00.439Z,7.35
2022-10-16T03:28:31.876Z,8.14
2022-10-16T03:29:03.343Z,8.39
2022-10-16T03:29:34.757Z,7.95
2022-10-16T03:30:06.163Z,7.32
2022-10-16T03:30:37.567Z,7.03
2022-10-16T03:31:08.953Z,7.58
2022-10-16T03:31:40.332Z,7.57
2022-10-16T03:32:11.717Z,8.10
2022-10-16T03:32:43.200Z,8.20
2022-10-16T03:33:14.604Z,7.73
2022-10-16T03:33:46.012Z,7.14
2022-10-16T03:34:17.404Z,7.59
2022-10-16T03:34:48.806Z,7.49
2022-10-16T03:35:20.283Z,7.79
2022-10-16T03:35:51.679Z,8.05
2022-10-16T03:36:23.067Z,7.53
2022-10-16T03:36:54.453Z,7.93
2022-10-16T03:37:26.043Z,7.90
2022-10-16T03:37:57.656Z,7.77
2022-10-16T03:38:29.091Z,7.32
2022-10-16T03:39:00.502Z,7.35
2022-10-16T03:39:31.883Z,7.37
2022-10-16T03:40:03.271Z,7.40
2022-10-16T03:40:34.671Z,7.61
2022-10-16T03:41:06.071Z,8.20
2022-10-16T03:41:37.471Z,7.99
2022-10-16T03:42:08.851Z,6.94
2022-10-16T03:42:40.278Z,8.04
2022-10-16T03:43:11.742Z,7.44
2022-10-16T03:43:43.191Z,7.33
2022-10-16T03:44:14.607Z,7.33
2022-10-16T03:44:45.992Z,7.75
2022-10-16T03:45:17.381Z,7.31
2022-10-16T03:45:48.783Z,7.19
2022-10-16T03:46:20.164Z,7.77
2022-10-16T03:46:51.543Z,7.78
2022-10-16T03:47:23.140Z,7.53
2022-10-16T03:47:54.638Z,7.27
2022-10-16T03:48:26.019Z,7.70
2022-10-16T03:48:57.400Z,6.70
2022-10-16T03:49:28.799Z,7.32
2022-10-16T03:50:00.193Z,7.53
2022-10-16T03:50:31.595Z,7.49
2022-10-16T03:51:02.979Z,7.10
2022-10-16T03:51:34.397Z,6.92
2022-10-16T03:52:05.864Z,7.84
2022-10-16T03:52:37.318Z,8.12
2022-10-16T03:53:08.804Z,7.91
2022-10-16T03:53:40.194Z,7.11
2022-10-16T03:54:11.588Z,6.97
2022-10-16T03:54:42.989Z,7.23
2022-10-16T03:55:14.380Z,7.34
2022-10-16T03:55:45.772Z,7.17
2022-10-16T03:56:17.162Z,6.87
2022-10-16T03:56:48.562Z,6.63
2022-10-16T03:57:19.949Z,7.35
2022-10-16T03:57:51.345Z,7.27
2022-10-16T03:58:22.861Z,7.05
2022-10-16T03:58:54.244Z,7.65
2022-10-16T03:59:25.647Z,7.66
2022-10-16T03:59:57.032Z,6.69
2022-10-16T04:00:28.423Z,7.71
2022-10-16T04:00:59.863Z,7.08
2022-10-16T04:01:31.283Z,6.87
2022-10-16T04:02:02.669Z,7.03
2022-10-16T04:02:34.101Z,7.60
2022-10-16T04:03:05.511Z,7.60
2022-10-16T04:03:37.049Z,6.93
2022-10-16T04:04:08.448Z,7.61
2022-10-16T04:04:39.831Z,6.30
2022-10-16T04:05:11.220Z,6.60
2022-10-16T04:05:42.604Z,7.30
2022-10-16T04:06:13.986Z,6.78
2022-10-16T04:06:45.389Z,7.49
2022-10-16T04:07:16.791Z,7.19
2022-10-16T04:07:48.201Z,6.97
2022-10-16T04:08:19.588Z,7.76
2022-10-16T04:08:51.089Z,7.21
2022-10-16T04:09:22.472Z,7.08
2022-10-16T04:09:53.856Z,6.43
2022-10-16T04:10:25.237Z,7.75
2022-10-16T04:10:56.628Z,7.54
2022-10-16T04:11:28.013Z,7.27
2022-10-16T04:11:59.415Z,8.05
2022-10-16T04:12:30.792Z,6.83
2022-10-16T04:13:02.185Z,6.69
2022-10-16T04:13:33.571Z,7.28
2022-10-16T04:14:04.978Z,7.11
2022-10-16T04:14:36.411Z,7.42
2022-10-16T04:15:07.900Z,6.46
2022-10-16T04:15:39.299Z,7.23
2022-10-16T04:16:10.699Z,7.01
2022-10-16T04:16:42.100Z,7.29
2022-10-16T04:17:13.484Z,7.30
2022-10-16T04:17:44.863Z,6.74
2022-10-16T04:18:16.272Z,6.87
2022-10-16T04:18:47.657Z,7.56
2022-10-16T04:19:19.114Z,7.16
2022-10-16T04:19:50.509Z,6.58
2022-10-16T04:20:21.892Z,6.80
2022-10-16T04:20:53.268Z,7.25
2022-10-16T04:21:24.657Z,6.92
2022-10-16T04:21:56.079Z,7.55
2022-10-16T04:23:03.766Z,6.89
2022-10-16T04:23:35.175Z,6.64
2022-10-16T04:24:06.556Z,6.22
2022-10-16T04:24:38.099Z,6.53
2022-10-16T04:25:09.492Z,6.86
2022-10-16T04:25:40.875Z,7.01
2022-10-16T04:26:12.275Z,6.01
2022-10-16T04:26:43.667Z,6.99
2022-10-16T04:27:15.079Z,6.90
2022-10-16T04:27:46.464Z,6.49
2022-10-16T04:28:17.851Z,7.37
2022-10-16T04:28:49.259Z,6.67
2022-10-16T04:29:20.723Z,6.45
2022-10-16T04:29:52.252Z,7.23
2022-10-16T04:30:23.668Z,6.50
2022-10-16T04:30:55.054Z,6.57
2022-10-16T04:31:26.450Z,6.56
2022-10-16T04:31:57.840Z,7.55
2022-10-16T04:32:29.231Z,7.14
2022-10-16T04:33:32.947Z,6.47
2022-10-16T04:34:04.335Z,6.77
2022-10-16T04:34:35.727Z,6.63
2022-10-16T04:35:07.219Z,7.78
2022-10-16T04:35:38.595Z,6.33
2022-10-16T04:36:10.002Z,7.07
2022-10-16T04:36:41.400Z,6.38
2022-10-16T04:37:12.781Z,6.73
2022-10-16T04:37:44.184Z,6.20
2022-10-16T04:38:15.568Z,6.63
2022-10-16T04:38:46.957Z,7.59
2022-10-16T04:39:18.344Z,6.33
2022-10-16T04:39:49.734Z,7.85
2022-10-16T04:40:21.176Z,7.41
2022-10-16T04:40:52.661Z,7.18
2022-10-16T04:41:24.045Z,6.74
2022-10-16T04:41:55.440Z,6.48
2022-10-16T04:42:26.846Z,7.29
2022-10-16T04:42:58.227Z,7.03
2022-10-16T04:44:05.893Z,7.25
2022-10-16T04:44:37.279Z,6.78
2022-10-16T04:45:10.944Z,6.45
2022-10-16T04:45:44.923Z,6.63
2022-10-16T04:46:16.530Z,6.34
2022-10-16T04:46:47.915Z,7.37
2022-10-16T04:47:19.301Z,7.05
2022-10-16T04:47:50.716Z,6.45
2022-10-16T04:48:22.099Z,7.05
2022-10-16T04:48:53.508Z,7.49
2022-10-16T04:49:24.898Z,7.16
2022-10-16T04:49:56.293Z,6.06
2022-10-16T04:50:27.681Z,6.68
2022-10-16T04:50:59.076Z,7.36
2022-10-16T04:51:30.486Z,6.97
2022-10-16T04:52:01.867Z,7.75
2022-10-16T04:53:04.604Z,7.73
2022-10-16T04:53:35.994Z,7.61
2022-10-16T04:54:07.377Z,7.25
2022-10-16T04:54:38.764Z,6.80
2022-10-16T04:55:10.171Z,7.29
2022-10-16T04:55:41.551Z,6.86
2022-10-16T04:56:12.983Z,7.46
2022-10-16T04:56:44.367Z,7.47
2022-10-16T04:57:15.756Z,7.57
2022-10-16T04:57:47.145Z,7.00
2022-10-16T04:58:18.535Z,6.72
2022-10-16T04:58:49.921Z,7.02
2022-10-16T04:59:21.420Z,6.93
2022-10-16T04:59:52.829Z,7.11
2022-10-16T05:00:24.234Z,6.55
2022-10-16T05:00:55.634Z,6.85
2022-10-16T05:01:27.148Z,7.56
2022-10-16T05:01:58.539Z,7.24
2022-10-16T05:02:29.957Z,6.97
2022-10-16T05:03:01.447Z,7.97
2022-10-16T05:03:32.903Z,7.79
2022-10-16T05:04:04.288Z,7.85
2022-10-16T05:04:35.702Z,7.01
2022-10-16T05:05:07.103Z,7.67
2022-10-16T05:05:38.489Z,7.96
2022-10-16T05:06:09.899Z,7.46
2022-10-16T05:06:41.409Z,7.31
2022-10-16T05:07:12.797Z,7.47
2022-10-16T05:07:44.202Z,6.97
2022-10-16T05:08:15.589Z,7.48
2022-10-16T05:08:46.976Z,6.79
2022-10-16T05:09:18.376Z,7.36
2022-10-16T05:09:49.755Z,7.73
2022-10-16T05:10:21.152Z,7.78
2022-10-16T05:10:52.563Z,7.36
2022-10-16T05:11:24.122Z,6.87
2022-10-16T05:11:55.584Z,6.97
2022-10-16T05:12:26.972Z,7.27
2022-10-16T05:12:58.362Z,6.73
2022-10-16T05:13:29.769Z,7.36
2022-10-16T05:14:01.208Z,7.98
2022-10-16T05:14:32.656Z,7.02
2022-10-16T05:15:04.049Z,7.29
2022-10-16T05:15:35.435Z,7.16
2022-10-16T05:16:06.837Z,6.93
2022-10-16T05:16:38.239Z,7.62
2022-10-16T05:17:09.668Z,8.03
2022-10-16T05:17:43.925Z,7.69
2022-10-16T05:18:16.222Z,6.99
2022-10-16T05:18:48.693Z,7.37
2022-10-16T05:19:27.250Z,7.18
2022-10-16T05:19:59.296Z,6.99
2022-10-16T05:20:30.679Z,7.95
2022-10-16T05:21:02.068Z,7.29
2022-10-16T05:21:33.485Z,6.83
2022-10-16T05:22:04.952Z,7.56
2022-10-16T05:22:36.405Z,7.59
2022-10-16T05:23:07.833Z,6.75
2022-10-16T05:23:39.265Z,6.92
2022-10-16T05:24:10.673Z,6.86
2022-10-16T05:24:42.060Z,7.01
2022-10-16T05:25:13.468Z,7.85
2022-10-16T05:25:44.866Z,6.65
2022-10-16T05:26:16.251Z,6.46
2022-10-16T05:26:47.644Z,6.72
2022-10-16T05:27:19.137Z,7.08
2022-10-16T05:27:50.522Z,7.11
2022-10-16T05:28:22.039Z,6.71
2022-10-16T05:28:53.488Z,7.42
2022-10-16T05:29:24.931Z,7.54
2022-10-16T05:29:56.279Z,7.04
2022-10-16T05:30:27.675Z,6.69
2022-10-16T05:30:59.083Z,7.09
2022-10-16T05:31:30.468Z,6.71
2022-10-16T05:32:01.965Z,7.18
2022-10-16T05:32:33.352Z,6.32
2022-10-16T05:33:04.735Z,6.51
2022-10-16T05:33:36.157Z,6.80
2022-10-16T05:34:07.585Z,7.21
2022-10-16T05:34:38.979Z,7.60
2022-10-16T05:35:12.691Z,7.60
2022-10-16T05:35:44.329Z,6.59
2022-10-16T05:36:15.716Z,7.47
2022-10-16T05:36:47.105Z,8.24
2022-10-16T05:37:18.670Z,8.26
2022-10-16T05:37:50.067Z,8.57
2022-10-16T05:38:21.474Z,8.12
2022-10-16T05:38:52.872Z,7.43
2022-10-16T05:39:24.260Z,7.61
2022-10-16T05:39:55.643Z,6.87
2022-10-16T05:40:27.027Z,6.73
2022-10-16T05:40:58.421Z,7.46
2022-10-16T05:41:29.809Z,7.07
2022-10-16T05:42:01.233Z,6.58
2022-10-16T05:42:32.728Z,6.89
2022-10-16T05:43:04.113Z,6.13
2022-10-16T05:43:35.520Z,7.44
2022-10-16T05:44:06.907Z,7.63
2022-10-16T05:44:38.342Z,7.88
2022-10-16T05:45:09.764Z,6.43
2022-10-16T05:45:41.152Z,7.14
2022-10-16T05:46:12.557Z,5.82
2022-10-16T05:46:43.950Z,6.92
2022-10-16T05:47:15.338Z,6.82
2022-10-16T05:47:46.801Z,6.28
2022-10-16T05:48:18.208Z,6.28
2022-10-16T05:48:49.597Z,6.76
2022-10-16T05:49:21.009Z,6.76
2022-10-16T05:49:52.393Z,6.46
2022-10-16T05:50:23.783Z,7.86
2022-10-16T05:50:55.207Z,6.96
2022-10-16T05:51:26.596Z,6.49
2022-10-16T05:51:57.994Z,6.88
2022-10-16T05:52:29.400Z,6.85
2022-10-16T05:53:00.846Z,6.62
2022-10-16T05:53:32.287Z,6.84
2022-10-16T05:54:03.744Z,6.97
2022-10-16T05:54:35.133Z,6.79
2022-10-16T05:55:06.522Z,7.23
2022-10-16T05:55:37.907Z,7.41
2022-10-16T05:56:09.316Z,7.50
2022-10-16T05:56:40.704Z,6.07
2022-10-16T05:57:12.181Z,6.70
2022-10-16T05:57:43.578Z,6.83
2022-10-16T05:58:15.127Z,5.58
2022-10-16T05:58:46.513Z,6.14
2022-10-16T05:59:17.931Z,6.71
2022-10-16T05:59:49.320Z,7.65
2022-10-16T06:00:20.734Z,6.85
2022-10-16T06:00:52.141Z,7.17
2022-10-16T06:01:23.594Z,7.24
2022-10-16T06:01:55.002Z,6.65
2022-10-16T06:02:26.404Z,7.21
2022-10-16T06:02:57.807Z,7.49
2022-10-16T06:03:29.471Z,6.56
2022-10-16T06:04:00.944Z,6.80
2022-10-16T06:04:32.391Z,6.71
2022-10-16T06:05:03.772Z,7.10
2022-10-16T06:05:35.179Z,7.86
2022-10-16T06:06:08.777Z,7.41
2022-10-16T06:06:42.880Z,7.29
2022-10-16T06:07:14.268Z,7.13
2022-10-16T06:07:45.685Z,7.08
2022-10-16T06:08:17.074Z,7.28
2022-10-16T06:08:48.579Z,6.61
2022-10-16T06:09:20.000Z,7.49
2022-10-16T06:09:51.408Z,6.72
2022-10-16T06:10:22.815Z,6.45
2022-10-16T06:10:54.230Z,7.64
2022-10-16T06:11:25.639Z,6.94
2022-10-16T06:11:57.030Z,6.90
2022-10-16T06:12:28.429Z,7.49
2022-10-16T06:12:59.818Z,6.36
2022-10-16T06:13:31.204Z,6.39
2022-10-16T06:14:02.729Z,6.67
2022-10-16T06:14:34.184Z,6.24
2022-10-16T06:15:05.621Z,7.16
2022-10-16T06:15:37.023Z,6.93
2022-10-16T06:16:08.431Z,6.68
2022-10-16T06:16:39.820Z,6.74
2022-10-16T06:17:11.200Z,6.93
2022-10-16T06:17:42.585Z,5.84
2022-10-16T06:18:13.971Z,6.54
2022-10-16T06:18:45.358Z,6.24
2022-10-16T06:19:16.876Z,6.93
2022-10-16T06:19:48.260Z,6.82
2022-10-16T06:20:19.649Z,6.59
2022-10-16T06:20:51.038Z,6.61
2022-10-16T06:21:22.426Z,6.39
2022-10-16T06:21:53.807Z,7.25
2022-10-16T06:22:25.192Z,6.28
2022-10-16T06:22:56.578Z,6.32
2022-10-16T06:23:27.966Z,7.34
2022-10-16T06:23:59.374Z,6.43
2022-10-16T06:24:30.853Z,7.01
2022-10-16T06:25:02.263Z,6.00
2022-10-16T06:25:33.656Z,6.79
2022-10-16T06:26:05.069Z,7.13
2022-10-16T06:26:36.448Z,6.50
2022-10-16T06:27:07.834Z,6.65
2022-10-16T06:27:39.216Z,6.62
2022-10-16T06:28:10.619Z,6.03
2022-10-16T06:28:42.064Z,6.52
2022-10-16T06:29:13.479Z,6.40
2022-10-16T06:29:44.992Z,5.65
2022-10-16T06:30:16.395Z,7.26
2022-10-16T06:30:47.776Z,6.05
2022-10-16T06:31:19.199Z,6.43
2022-10-16T06:31:50.589Z,6.75
2022-10-16T06:32:21.972Z,5.69
2022-10-16T06:32:53.352Z,6.03
2022-10-16T06:33:24.732Z,6.01
2022-10-16T06:33:56.134Z,6.46
2022-10-16T06:34:27.547Z,6.73
2022-10-16T06:34:59.077Z,6.60
2022-10-16T06:35:30.479Z,6.46
2022-10-16T06:36:01.953Z,6.87
2022-10-16T06:36:33.342Z,6.44
2022-10-16T06:37:04.745Z,6.16
2022-10-16T06:37:36.139Z,6.50
2022-10-16T06:38:07.538Z,6.88
2022-10-16T06:38:38.956Z,5.79
2022-10-16T06:39:10.365Z,6.67
2022-10-16T06:39:41.749Z,6.51
2022-10-16T06:40:13.215Z,5.44
2022-10-16T06:40:44.601Z,5.98
2022-10-16T06:41:16.002Z,6.94
2022-10-16T06:41:47.417Z,6.94
2022-10-16T06:42:18.836Z,6.43
2022-10-16T06:42:50.239Z,6.99
2022-10-16T06:43:21.631Z,7.58
2022-10-16T06:43:53.021Z,7.27
2022-10-16T06:44:24.403Z,6.69
2022-10-16T06:44:55.789Z,6.56
2022-10-16T06:45:27.281Z,5.93
2022-10-16T06:45:58.668Z,5.89
2022-10-16T06:46:30.061Z,6.08
2022-10-16T06:47:01.485Z,5.96
2022-10-16T06:47:32.896Z,5.84
2022-10-16T06:48:04.280Z,6.32
2022-10-16T06:48:35.668Z,6.96
2022-10-16T06:49:07.081Z,6.28
2022-10-16T06:49:38.485Z,6.40
2022-10-16T06:50:09.873Z,7.04
2022-10-16T06:50:41.290Z,6.00
2022-10-16T06:51:12.686Z,5.91
2022-10-16T06:51:44.072Z,6.22
2022-10-16T06:52:15.479Z,6.24
2022-10-16T06:52:46.892Z,6.25
2022-10-16T06:53:18.277Z,6.99
2022-10-16T06:54:02.344Z,6.66
2022-10-16T06:54:42.054Z,5.90
2022-10-16T06:55:14.042Z,5.89
2022-10-16T06:55:46.033Z,6.07
2022-10-16T06:56:17.495Z,6.51
2022-10-16T06:56:48.882Z,5.69
2022-10-16T06:57:24.849Z,5.89
2022-10-16T06:57:56.391Z,6.26
2022-10-16T06:58:27.804Z,6.74
2022-10-16T06:58:59.208Z,6.35
2022-10-16T06:59:30.592Z,6.55
2022-10-16T07:00:02.047Z,6.39
2022-10-16T07:00:33.520Z,6.82
2022-10-16T07:01:05.064Z,6.28
2022-10-16T07:01:36.419Z,6.73
2022-10-16T07:02:07.833Z,6.48
2022-10-16T07:02:39.241Z,6.46
2022-10-16T07:03:10.629Z,5.93